Bookmark and Share
Track history (hours):
 

Tests

Last reported at 2014-Apr-20 00:32 UTC. Time now 2014-Apr-20 00:53 UTC.
Position N 53°45' E 008°04'.

Length 37 m; draft 5.7 m.

Type: Cargo ship. MMSI: 438003028.

NotesDate/timePositionNaut miles runAvg speedWind from/ knotsBaromVisibWave heightAir tempDewpointWater temp
2014-Apr-20 00:32N 53°45' E 008°04'0 0.0
2014-Apr-19 23:32N 53°45' E 008°04'0 0.0
2014-Apr-19 22:29N 53°45' E 008°04'0 0.0
2014-Apr-19 21:29N 53°45' E 008°04'0 0.0
2014-Apr-19 20:32N 53°45' E 008°04'0 0.1
2014-Apr-19 19:26N 53°45' E 008°04'0 0.0
2014-Apr-19 18:32N 53°45' E 008°04'0 0.0
2014-Apr-19 17:32N 53°45' E 008°04'0 0.0
2014-Apr-19 16:32N 53°45' E 008°04'0 0.0
2014-Apr-19 15:32N 53°45' E 008°04'0 0.1
2014-Apr-19 14:29N 53°45' E 008°04'0 0.0
2014-Apr-19 13:32N 53°45' E 008°04'0 0.0
2014-Apr-19 12:32N 53°45' E 008°04'0 0.0
2014-Apr-19 11:32N 53°45' E 008°04'0 0.0
2014-Apr-19 10:29N 53°45' E 008°04'0 0.0
2014-Apr-19 09:32N 53°45' E 008°04'0 0.0
2014-Apr-19 08:32N 53°45' E 008°04'0 0.0
2014-Apr-19 07:32N 53°45' E 008°04'0 0.0
2014-Apr-19 06:32N 53°45' E 008°04'0 0.0
2014-Apr-19 05:32N 53°45' E 008°04'0 0.0
2014-Apr-19 04:32N 53°45' E 008°04'0 0.0
2014-Apr-19 03:32N 53°45' E 008°04'0 0.1
2014-Apr-19 02:32N 53°45' E 008°04'0 0.0
2014-Apr-19 01:32N 53°45' E 008°04'0 0.0
2014-Apr-19 00:32N 53°45' E 008°04'0 0.0
2014-Apr-18 23:32N 53°45' E 008°04'0 0.0
2014-Apr-18 22:32N 53°45' E 008°04'0 0.0
2014-Apr-18 21:29N 53°45' E 008°04'0 0.0
2014-Apr-18 20:32N 53°45' E 008°04'0 0.1
2014-Apr-18 19:32N 53°45' E 008°04'0 0.0
2014-Apr-18 18:32N 53°45' E 008°04'0 0.0
2014-Apr-18 17:32N 53°45' E 008°04'0 0.0
2014-Apr-18 16:32N 53°45' E 008°04'0 0.0
2014-Apr-18 15:32N 53°45' E 008°04'0 0.2
2014-Apr-18 14:32N 53°45' E 008°04'0 0.0
2014-Apr-18 13:32N 53°45' E 008°04'0 0.0
2014-Apr-18 12:29N 53°45' E 008°04'0 0.0
2014-Apr-18 11:32N 53°45' E 008°04'0 0.0
2014-Apr-18 10:32N 53°45' E 008°04'0 0.0
2014-Apr-18 09:29N 53°45' E 008°04'0 0.0
2014-Apr-18 08:32N 53°45' E 008°04'0 0.1
2014-Apr-18 07:32N 53°45' E 008°04'0 0.1
2014-Apr-18 06:32N 53°45' E 008°04'0 0.0
2014-Apr-18 05:29N 53°45' E 008°04'0 0.0
2014-Apr-18 04:32N 53°45' E 008°04'0 0.0
2014-Apr-18 03:32N 53°45' E 008°04'0 0.2
2014-Apr-18 02:32N 53°45' E 008°04'0 0.0
2014-Apr-18 01:32N 53°45' E 008°04'0 0.0
2014-Apr-18 00:32N 53°45' E 008°04'0 0.0
2014-Apr-17 23:32N 53°45' E 008°04'0 0.0
2014-Apr-17 22:32N 53°45' E 008°04'0 0.0
2014-Apr-17 21:32N 53°45' E 008°04'0 0.0
2014-Apr-17 20:30N 53°45' E 008°04'2 2.2
2014-Apr-17 19:34N 53°46' E 008°02'1111.1
2014-Apr-17 18:34N 53°53' E 007°47'1211.5
2014-Apr-17 17:33N 53°54' E 007°27'1111.2
2014-Apr-17 16:33N 53°50' E 007°09'30 9.3
2014-Apr-17 13:23N 53°37' E 006°25'1111.5
2014-Apr-17 12:27N 53°33' E 006°42'0 0.1
2014-Apr-17 11:29N 53°33' E 006°42'0 0.0
2014-Apr-17 10:29N 53°33' E 006°42'1 0.7
2014-Apr-17 09:33N 53°33' E 006°41'31 7.8
2014-Apr-17 05:33N 54°02' E 006°20'9 8.4
2014-Apr-17 04:32N 54°11' E 006°20'9 8.8
2014-Apr-17 03:33N 54°19' E 006°24'9 8.7
2014-Apr-17 02:33N 54°28' E 006°27'2 1.6
2014-Apr-17 01:32N 54°29' E 006°26'0 0.0
2014-Apr-17 00:29N 54°29' E 006°26'0 0.1
2014-Apr-16 23:26N 54°29' E 006°26'0 0.1
2014-Apr-16 22:32N 54°29' E 006°26'0 0.0
2014-Apr-16 21:30N 54°29' E 006°26'0 0.0
2014-Apr-16 20:32N 54°29' E 006°26'0 0.0
2014-Apr-16 18:08N 54°29' E 006°26'0 0.0
2014-Apr-16 17:32N 54°29' E 006°26'0 0.0
2014-Apr-16 16:12N 54°29' E 006°25'0 0.0
2014-Apr-16 14:23N 54°29' E 006°26'0 0.0
2014-Apr-16 13:29N 54°29' E 006°26'0 0.0
2014-Apr-16 12:20N 54°29' E 006°26'0 0.0
2014-Apr-16 06:30N 54°29' E 006°26'0 0.0
2014-Apr-16 05:24N 54°29' E 006°26'18 6.0
2014-Apr-16 02:29N 54°22' E 006°53'1011.2
2014-Apr-16 01:32N 54°17' E 007°09'1111.0
2014-Apr-16 00:33N 54°12' E 007°26'1010.2
2014-Apr-15 23:32N 54°04' E 007°36'9 9.2
2014-Apr-15 22:33N 53°56' E 007°43'10 9.9
2014-Apr-15 21:33N 53°49' E 007°56'7 7.2
2014-Apr-15 20:33N 53°44' E 008°04'10 9.7
2014-Apr-15 19:33N 53°35' E 008°10'3 2.9
2014-Apr-15 18:28N 53°32' E 008°09'1 0.6
2014-Apr-15 17:33N 53°31' E 008°09'0 0.0
2014-Apr-15 16:32N 53°31' E 008°09'0 0.0
2014-Apr-15 15:29N 53°31' E 008°09'0 0.0
2014-Apr-15 14:32N 53°31' E 008°09'0 0.0
2014-Apr-15 12:33N 53°31' E 008°09'0 0.0
2014-Apr-15 11:30N 53°31' E 008°09'0 0.0
2014-Apr-15 10:30N 53°31' E 008°09'0 0.0
2014-Apr-15 09:33N 53°31' E 008°09'0 0.0
2014-Apr-15 08:33N 53°31' E 008°09'0 0.0
2014-Apr-15 07:33N 53°31' E 008°09'0 0.0
2014-Apr-15 06:33N 53°31' E 008°09'0 0.0
2014-Apr-15 05:33N 53°31' E 008°09'0 0.0
2014-Apr-15 03:33N 53°31' E 008°09'0 0.0
2014-Apr-15 01:33N 53°31' E 008°09'0 0.0
2014-Apr-15 00:33N 53°31' E 008°09'0 0.0
2014-Apr-14 23:33N 53°31' E 008°09'0 0.0
2014-Apr-14 22:33N 53°31' E 008°09'0 0.0
2014-Apr-14 20:33N 53°31' E 008°09'0 0.0
2014-Apr-14 19:30N 53°31' E 008°09'0 0.0
2014-Apr-14 18:33N 53°31' E 008°09'0 0.0
2014-Apr-14 17:32N 53°31' E 008°09'0 0.0
2014-Apr-14 15:33N 53°31' E 008°09'0 0.0
2014-Apr-14 14:32N 53°31' E 008°09'0 0.0
2014-Apr-14 13:32N 53°31' E 008°09'0 0.0
2014-Apr-14 11:32N 53°31' E 008°09'0 0.0
2014-Apr-14 10:30N 53°31' E 008°09'0 0.0
2014-Apr-14 09:32N 53°31' E 008°09'0 0.0
2014-Apr-14 08:32N 53°31' E 008°09'0 0.0
2014-Apr-14 07:29N 53°31' E 008°09'0 0.0
2014-Apr-14 06:32N 53°31' E 008°09'0 0.0
2014-Apr-14 05:32N 53°31' E 008°09'0 0.0
2014-Apr-13 22:32N 53°31' E 008°09'0 0.0
2014-Apr-13 21:32N 53°31' E 008°09'0 0.0
2014-Apr-13 20:29N 53°31' E 008°09'0 0.0
2014-Apr-13 19:29N 53°31' E 008°09'0 0.0
2014-Apr-13 18:32N 53°31' E 008°09'0 0.0
2014-Apr-13 17:32N 53°31' E 008°09'0 0.0
2014-Apr-13 16:32N 53°31' E 008°09'0 0.0
2014-Apr-13 15:32N 53°31' E 008°09'0 0.0
2014-Apr-13 14:29N 53°31' E 008°09'0 0.0
2014-Apr-13 13:32N 53°31' E 008°09'0 0.0
2014-Apr-13 12:32N 53°31' E 008°09'0 0.0
2014-Apr-13 11:32N 53°31' E 008°09'0 0.0
2014-Apr-13 10:32N 53°31' E 008°09'0 0.0
2014-Apr-13 09:32N 53°31' E 008°09'0 0.0
2014-Apr-13 08:32N 53°31' E 008°09'0 0.0
2014-Apr-13 07:32N 53°31' E 008°09'1 0.5
2014-Apr-13 06:33N 53°32' E 008°10'3 2.6
2014-Apr-13 05:34N 53°34' E 008°10'10 9.7
2014-Apr-13 04:33N 53°43' E 008°04'9 8.5
2014-Apr-13 03:33N 53°50' E 007°54'6 6.3
2014-Apr-13 02:33N 53°53' E 007°45'4 4.1
2014-Apr-13 01:33N 53°55' E 007°40'4 4.4
2014-Apr-13 00:33N 53°59' E 007°36'7 7.4
2014-Apr-12 23:33N 54°06' E 007°31'7 7.2
2014-Apr-12 22:34N 54°12' E 007°24'6 5.5
2014-Apr-12 21:33N 54°15' E 007°16'6 5.6
2014-Apr-12 20:33N 54°17' E 007°07'6 5.8
2014-Apr-12 19:33N 54°20' E 006°58'6 6.0
2014-Apr-12 18:33N 54°22' E 006°49'6 6.3
2014-Apr-12 17:33N 54°25' E 006°39'9 2.5
2014-Apr-12 14:05N 54°29' E 006°26'0 0.1
2014-Apr-12 13:14N 54°29' E 006°26'0 0.0
2014-Apr-12 12:14N 54°29' E 006°26'0 0.0
2014-Apr-12 11:32N 54°29' E 006°26'0 0.0
2014-Apr-12 10:17N 54°29' E 006°26'0 0.0
2014-Apr-12 09:32N 54°29' E 006°26'0 0.0
2014-Apr-12 08:32N 54°29' E 006°26'0 0.0
2014-Apr-12 07:29N 54°29' E 006°26'0 0.0
2014-Apr-12 06:32N 54°29' E 006°26'0 0.0
2014-Apr-12 02:29N 54°29' E 006°26'0 0.0
2014-Apr-11 17:05N 54°29' E 006°26'0 0.0
2014-Apr-11 16:26N 54°29' E 006°26'0 0.0
2014-Apr-11 15:05N 54°29' E 006°26'0 0.0
2014-Apr-11 14:17N 54°29' E 006°26'0 0.0
2014-Apr-11 13:26N 54°29' E 006°26'0 0.0
2014-Apr-11 12:32N 54°29' E 006°26'0 0.0
2014-Apr-11 10:23N 54°29' E 006°26'0 0.0
2014-Apr-11 05:20N 54°29' E 006°26'0 0.0
2014-Apr-11 02:11N 54°29' E 006°26'0 0.0
2014-Apr-11 01:30N 54°29' E 006°26'0 0.0
2014-Apr-10 23:20N 54°29' E 006°26'0 0.0
2014-Apr-10 22:32N 54°29' E 006°26'0 0.0
2014-Apr-10 20:17N 54°29' E 006°26'0 0.0
2014-Apr-10 08:30N 54°29' E 006°26'0 0.0
2014-Apr-10 05:27N 54°29' E 006°26'  

Dump ship's entire track history

sailing weather and tide predictions

Tests — V7NV7 — position and weather